sensor_id;sensor_type;location;lat;lon;timestamp;temperature;humidity
19164;DHT22;9714;51.208;4.242;2023-02-17T00:00:13;12.10;99.90
19164;DHT22;9714;51.208;4.242;2023-02-17T00:02:53;12.10;99.90
19164;DHT22;9714;51.208;4.242;2023-02-17T00:05:29;12.20;99.90
19164;DHT22;9714;51.208;4.242;2023-02-17T00:08:16;12.20;99.90
19164;DHT22;9714;51.208;4.242;2023-02-17T00:14:23;12.20;99.90
19164;DHT22;9714;51.208;4.242;2023-02-17T00:17:16;12.20;99.90
19164;DHT22;9714;51.208;4.242;2023-02-17T00:19:54;12.10;99.90
19164;DHT22;9714;51.208;4.242;2023-02-17T00:22:38;12.10;99.90
19164;DHT22;9714;51.208;4.242;2023-02-17T00:25:10;12.10;99.90
19164;DHT22;9714;51.208;4.242;2023-02-17T00:44:37;12.10;99.90
19164;DHT22;9714;51.208;4.242;2023-02-17T00:47:13;12.00;99.90
19164;DHT22;9714;51.208;4.242;2023-02-17T00:49:40;11.90;99.90
19164;DHT22;9714;51.208;4.242;2023-02-17T00:52:09;11.90;99.90
19164;DHT22;9714;51.208;4.242;2023-02-17T00:54:37;11.90;99.90
19164;DHT22;9714;51.208;4.242;2023-02-17T00:57:13;11.90;99.90
19164;DHT22;9714;51.208;4.242;2023-02-17T00:59:47;12.00;99.90
19164;DHT22;9714;51.208;4.242;2023-02-17T01:02:14;12.00;99.90
19164;DHT22;9714;51.208;4.242;2023-02-17T01:04:42;11.90;99.90
19164;DHT22;9714;51.208;4.242;2023-02-17T01:07:25;11.90;99.90
19164;DHT22;9714;51.208;4.242;2023-02-17T01:09:54;12.00;99.90
19164;DHT22;9714;51.208;4.242;2023-02-17T01:12:21;11.90;99.90
19164;DHT22;9714;51.208;4.242;2023-02-17T01:14:51;11.80;99.90
19164;DHT22;9714;51.208;4.242;2023-02-17T01:17:24;11.70;99.90
19164;DHT22;9714;51.208;4.242;2023-02-17T01:19:51;11.70;99.90
19164;DHT22;9714;51.208;4.242;2023-02-17T01:22:21;11.80;99.90
19164;DHT22;9714;51.208;4.242;2023-02-17T01:24:49;11.80;99.90
19164;DHT22;9714;51.208;4.242;2023-02-17T01:27:19;11.90;99.90
19164;DHT22;9714;51.208;4.242;2023-02-17T01:29:47;11.80;99.90
19164;DHT22;9714;51.208;4.242;2023-02-17T01:32:21;11.70;99.90
19164;DHT22;9714;51.208;4.242;2023-02-17T01:34:52;11.80;99.90
19164;DHT22;9714;51.208;4.242;2023-02-17T01:37:20;11.80;99.90
19164;DHT22;9714;51.208;4.242;2023-02-17T01:39:53;11.80;99.90
19164;DHT22;9714;51.208;4.242;2023-02-17T01:42:35;11.80;99.90
19164;DHT22;9714;51.208;4.242;2023-02-17T01:48:17;11.90;99.90
19164;DHT22;9714;51.208;4.242;2023-02-17T01:50:48;11.90;99.90
19164;DHT22;9714;51.208;4.242;2023-02-17T01:53:20;11.90;99.90
19164;DHT22;9714;51.208;4.242;2023-02-17T01:55:48;11.90;99.90
19164;DHT22;9714;51.208;4.242;2023-02-17T01:58:19;11.90;99.90
19164;DHT22;9714;51.208;4.242;2023-02-17T02:00:51;11.90;99.90
19164;DHT22;9714;51.208;4.242;2023-02-17T02:03:20;11.80;99.90
19164;DHT22;9714;51.208;4.242;2023-02-17T02:05:47;11.90;99.90
19164;DHT22;9714;51.208;4.242;2023-02-17T02:08:15;12.00;99.90
19164;DHT22;9714;51.208;4.242;2023-02-17T02:10:42;12.00;99.90
19164;DHT22;9714;51.208;4.242;2023-02-17T02:13:09;12.10;99.90
19164;DHT22;9714;51.208;4.242;2023-02-17T02:15:42;12.10;99.90
19164;DHT22;9714;51.208;4.242;2023-02-17T02:18:23;12.00;99.90
19164;DHT22;9714;51.208;4.242;2023-02-17T02:21:17;11.90;99.90
19164;DHT22;9714;51.208;4.242;2023-02-17T02:24:14;11.90;99.90
19164;DHT22;9714;51.208;4.242;2023-02-17T02:27:15;11.90;99.90
19164;DHT22;9714;51.208;4.242;2023-02-17T02:30:03;11.80;99.90
19164;DHT22;9714;51.208;4.242;2023-02-17T02:35:33;11.70;99.90
19164;DHT22;9714;51.208;4.242;2023-02-17T02:38:12;11.60;99.90
19164;DHT22;9714;51.208;4.242;2023-02-17T02:41:03;11.70;99.90
19164;DHT22;9714;51.208;4.242;2023-02-17T02:43:58;11.70;99.90
19164;DHT22;9714;51.208;4.242;2023-02-17T02:46:26;11.60;99.90
19164;DHT22;9714;51.208;4.242;2023-02-17T02:49:00;11.50;99.90
19164;DHT22;9714;51.208;4.242;2023-02-17T02:51:40;11.50;99.90
19164;DHT22;9714;51.208;4.242;2023-02-17T02:57:38;11.50;99.90
19164;DHT22;9714;51.208;4.242;2023-02-17T03:07:13;11.50;99.90
19164;DHT22;9714;51.208;4.242;2023-02-17T03:09:47;11.50;99.90
19164;DHT22;9714;51.208;4.242;2023-02-17T03:12:16;11.40;99.90
19164;DHT22;9714;51.208;4.242;2023-02-17T03:14:43;11.40;99.90
19164;DHT22;9714;51.208;4.242;2023-02-17T03:17:10;11.40;99.90
19164;DHT22;9714;51.208;4.242;2023-02-17T03:19:40;11.50;99.90
19164;DHT22;9714;51.208;4.242;2023-02-17T03:22:27;11.50;99.90
19164;DHT22;9714;51.208;4.242;2023-02-17T03:25:20;11.50;99.90
19164;DHT22;9714;51.208;4.242;2023-02-17T03:27:53;11.60;99.90
19164;DHT22;9714;51.208;4.242;2023-02-17T03:33:31;11.50;99.90
19164;DHT22;9714;51.208;4.242;2023-02-17T03:36:02;11.40;99.90
19164;DHT22;9714;51.208;4.242;2023-02-17T03:38:34;11.40;99.90
19164;DHT22;9714;51.208;4.242;2023-02-17T03:41:03;11.50;99.90
19164;DHT22;9714;51.208;4.242;2023-02-17T03:43:36;11.50;99.90
19164;DHT22;9714;51.208;4.242;2023-02-17T03:46:09;11.60;99.90
19164;DHT22;9714;51.208;4.242;2023-02-17T03:48:38;11.60;99.90
19164;DHT22;9714;51.208;4.242;2023-02-17T03:51:14;11.60;99.90
19164;DHT22;9714;51.208;4.242;2023-02-17T03:53:43;11.60;99.90
19164;DHT22;9714;51.208;4.242;2023-02-17T03:56:11;11.60;99.90
19164;DHT22;9714;51.208;4.242;2023-02-17T03:58:45;11.60;99.90
19164;DHT22;9714;51.208;4.242;2023-02-17T04:01:12;11.70;99.90
19164;DHT22;9714;51.208;4.242;2023-02-17T04:03:42;11.60;99.90
19164;DHT22;9714;51.208;4.242;2023-02-17T04:06:10;11.50;99.90
19164;DHT22;9714;51.208;4.242;2023-02-17T04:08:44;11.50;99.90
19164;DHT22;9714;51.208;4.242;2023-02-17T04:11:33;11.50;99.90
19164;DHT22;9714;51.208;4.242;2023-02-17T04:14:00;11.40;99.90
19164;DHT22;9714;51.208;4.242;2023-02-17T04:16:29;11.40;99.90
19164;DHT22;9714;51.208;4.242;2023-02-17T04:19:02;11.40;99.90
19164;DHT22;9714;51.208;4.242;2023-02-17T04:21:35;11.50;99.90
19164;DHT22;9714;51.208;4.242;2023-02-17T04:24:04;11.50;99.90
19164;DHT22;9714;51.208;4.242;2023-02-17T04:26:37;11.40;99.90
19164;DHT22;9714;51.208;4.242;2023-02-17T04:29:04;11.40;99.90
19164;DHT22;9714;51.208;4.242;2023-02-17T04:35:22;11.50;99.90
19164;DHT22;9714;51.208;4.242;2023-02-17T04:38:15;11.60;99.90
19164;DHT22;9714;51.208;4.242;2023-02-17T04:40:50;11.50;99.90
19164;DHT22;9714;51.208;4.242;2023-02-17T05:00:41;11.50;99.90
19164;DHT22;9714;51.208;4.242;2023-02-17T05:03:09;11.50;99.90
19164;DHT22;9714;51.208;4.242;2023-02-17T05:05:39;11.40;99.90
19164;DHT22;9714;51.208;4.242;2023-02-17T05:08:08;11.50;99.90
19164;DHT22;9714;51.208;4.242;2023-02-17T05:10:36;11.40;99.90
19164;DHT22;9714;51.208;4.242;2023-02-17T05:13:03;11.50;99.90
19164;DHT22;9714;51.208;4.242;2023-02-17T05:15:34;11.50;99.90
19164;DHT22;9714;51.208;4.242;2023-02-17T05:18:04;11.40;99.90
19164;DHT22;9714;51.208;4.242;2023-02-17T05:20:37;11.40;99.90
19164;DHT22;9714;51.208;4.242;2023-02-17T05:23:05;11.50;99.90
19164;DHT22;9714;51.208;4.242;2023-02-17T05:25:32;11.40;99.90
19164;DHT22;9714;51.208;4.242;2023-02-17T05:28:01;11.40;99.90
19164;DHT22;9714;51.208;4.242;2023-02-17T05:30:34;11.50;99.90
19164;DHT22;9714;51.208;4.242;2023-02-17T05:33:01;11.50;99.90
19164;DHT22;9714;51.208;4.242;2023-02-17T05:35:33;11.60;99.90
19164;DHT22;9714;51.208;4.242;2023-02-17T05:38:02;11.60;99.90
19164;DHT22;9714;51.208;4.242;2023-02-17T05:40:30;11.60;99.90
19164;DHT22;9714;51.208;4.242;2023-02-17T05:42:57;11.50;99.90
19164;DHT22;9714;51.208;4.242;2023-02-17T05:45:26;11.60;99.90
19164;DHT22;9714;51.208;4.242;2023-02-17T05:47:57;11.70;99.90
19164;DHT22;9714;51.208;4.242;2023-02-17T05:50:24;11.70;99.90
19164;DHT22;9714;51.208;4.242;2023-02-17T05:52:52;11.60;99.90
19164;DHT22;9714;51.208;4.242;2023-02-17T05:55:21;11.60;99.90
19164;DHT22;9714;51.208;4.242;2023-02-17T05:57:50;11.50;99.90
19164;DHT22;9714;51.208;4.242;2023-02-17T06:00:18;11.60;99.90
19164;DHT22;9714;51.208;4.242;2023-02-17T06:02:47;11.60;99.90
19164;DHT22;9714;51.208;4.242;2023-02-17T06:08:55;11.60;99.90
19164;DHT22;9714;51.208;4.242;2023-02-17T06:11:22;11.50;99.90
19164;DHT22;9714;51.208;4.242;2023-02-17T06:14:19;11.60;99.90
19164;DHT22;9714;51.208;4.242;2023-02-17T06:17:23;11.70;99.90
19164;DHT22;9714;51.208;4.242;2023-02-17T06:19:52;11.50;99.90
19164;DHT22;9714;51.208;4.242;2023-02-17T06:22:20;11.60;99.90
19164;DHT22;9714;51.208;4.242;2023-02-17T06:24:52;11.60;99.90
19164;DHT22;9714;51.208;4.242;2023-02-17T06:27:21;11.60;99.90
19164;DHT22;9714;51.208;4.242;2023-02-17T06:29:54;11.50;99.90
19164;DHT22;9714;51.208;4.242;2023-02-17T06:32:22;11.60;99.90
19164;DHT22;9714;51.208;4.242;2023-02-17T06:34:49;11.60;99.90
19164;DHT22;9714;51.208;4.242;2023-02-17T06:37:26;11.60;99.90
19164;DHT22;9714;51.208;4.242;2023-02-17T06:43:21;11.50;99.90
19164;DHT22;9714;51.208;4.242;2023-02-17T06:45:58;11.60;99.90
19164;DHT22;9714;51.208;4.242;2023-02-17T06:51:03;11.60;99.90
19164;DHT22;9714;51.208;4.242;2023-02-17T06:53:35;11.60;99.90
19164;DHT22;9714;51.208;4.242;2023-02-17T06:56:07;11.60;99.90
19164;DHT22;9714;51.208;4.242;2023-02-17T06:58:39;11.50;99.90
19164;DHT22;9714;51.208;4.242;2023-02-17T07:01:15;11.60;99.90
19164;DHT22;9714;51.208;4.242;2023-02-17T07:03:46;11.60;99.90
19164;DHT22;9714;51.208;4.242;2023-02-17T07:09:14;11.70;99.90
19164;DHT22;9714;51.208;4.242;2023-02-17T07:11:44;11.70;99.90
19164;DHT22;9714;51.208;4.242;2023-02-17T07:14:11;11.80;99.90
19164;DHT22;9714;51.208;4.242;2023-02-17T07:16:57;11.70;99.90
19164;DHT22;9714;51.208;4.242;2023-02-17T07:19:46;11.70;99.90
19164;DHT22;9714;51.208;4.242;2023-02-17T07:22:12;11.70;99.90
19164;DHT22;9714;51.208;4.242;2023-02-17T07:24:39;11.70;99.90
19164;DHT22;9714;51.208;4.242;2023-02-17T07:27:08;11.80;99.90
19164;DHT22;9714;51.208;4.242;2023-02-17T07:29:35;11.80;99.90
19164;DHT22;9714;51.208;4.242;2023-02-17T07:32:03;11.80;99.90
19164;DHT22;9714;51.208;4.242;2023-02-17T07:34:30;11.80;99.90
19164;DHT22;9714;51.208;4.242;2023-02-17T07:37:00;11.80;99.90
19164;DHT22;9714;51.208;4.242;2023-02-17T07:39:35;11.90;99.90
19164;DHT22;9714;51.208;4.242;2023-02-17T07:42:03;11.90;99.90
19164;DHT22;9714;51.208;4.242;2023-02-17T07:44:34;12.00;99.90
19164;DHT22;9714;51.208;4.242;2023-02-17T07:47:01;12.00;99.90
19164;DHT22;9714;51.208;4.242;2023-02-17T07:49:33;12.00;99.90
19164;DHT22;9714;51.208;4.242;2023-02-17T07:52:01;12.10;99.90
19164;DHT22;9714;51.208;4.242;2023-02-17T07:54:28;12.00;99.90
19164;DHT22;9714;51.208;4.242;2023-02-17T07:56:55;12.00;99.90
19164;DHT22;9714;51.208;4.242;2023-02-17T08:09:11;12.10;99.90
19164;DHT22;9714;51.208;4.242;2023-02-17T08:11:55;12.10;99.90
19164;DHT22;9714;51.208;4.242;2023-02-17T08:14:41;12.10;99.90
19164;DHT22;9714;51.208;4.242;2023-02-17T08:17:09;12.10;99.90
19164;DHT22;9714;51.208;4.242;2023-02-17T08:19:36;12.10;99.90
19164;DHT22;9714;51.208;4.242;2023-02-17T08:22:03;12.10;99.90
19164;DHT22;9714;51.208;4.242;2023-02-17T08:24:31;12.20;99.90
19164;DHT22;9714;51.208;4.242;2023-02-17T08:27:07;12.30;99.90
19164;DHT22;9714;51.208;4.242;2023-02-17T08:29:36;12.30;99.90
19164;DHT22;9714;51.208;4.242;2023-02-17T08:32:03;12.30;99.90
19164;DHT22;9714;51.208;4.242;2023-02-17T08:34:30;12.40;99.90
19164;DHT22;9714;51.208;4.242;2023-02-17T08:36:58;12.40;99.90
19164;DHT22;9714;51.208;4.242;2023-02-17T08:39:25;12.40;99.90
19164;DHT22;9714;51.208;4.242;2023-02-17T08:41:54;12.40;99.90
19164;DHT22;9714;51.208;4.242;2023-02-17T08:44:21;12.50;99.90
19164;DHT22;9714;51.208;4.242;2023-02-17T08:46:50;12.40;99.90
19164;DHT22;9714;51.208;4.242;2023-02-17T08:49:19;12.60;99.90
19164;DHT22;9714;51.208;4.242;2023-02-17T08:51:49;12.50;99.90
19164;DHT22;9714;51.208;4.242;2023-02-17T08:54:17;12.60;99.90
19164;DHT22;9714;51.208;4.242;2023-02-17T08:56:45;12.80;99.90
19164;DHT22;9714;51.208;4.242;2023-02-17T08:59:14;12.70;99.90
19164;DHT22;9714;51.208;4.242;2023-02-17T09:01:41;12.70;99.90
19164;DHT22;9714;51.208;4.242;2023-02-17T09:04:25;12.70;99.90
19164;DHT22;9714;51.208;4.242;2023-02-17T09:06:57;12.70;99.90
19164;DHT22;9714;51.208;4.242;2023-02-17T09:09:28;13.00;99.90
19164;DHT22;9714;51.208;4.242;2023-02-17T09:12:03;13.30;99.90
19164;DHT22;9714;51.208;4.242;2023-02-17T09:14:48;13.40;99.90
19164;DHT22;9714;51.208;4.242;2023-02-17T09:17:24;13.70;99.90
19164;DHT22;9714;51.208;4.242;2023-02-17T09:19:55;13.50;99.90
19164;DHT22;9714;51.208;4.242;2023-02-17T09:22:23;13.40;99.90
19164;DHT22;9714;51.208;4.242;2023-02-17T09:24:55;13.20;99.90
19164;DHT22;9714;51.208;4.242;2023-02-17T09:27:28;13.10;99.90
19164;DHT22;9714;51.208;4.242;2023-02-17T09:29:57;13.20;99.90
19164;DHT22;9714;51.208;4.242;2023-02-17T09:32:32;13.10;99.90
19164;DHT22;9714;51.208;4.242;2023-02-17T09:35:04;13.20;99.90
19164;DHT22;9714;51.208;4.242;2023-02-17T09:37:32;13.00;99.90
19164;DHT22;9714;51.208;4.242;2023-02-17T09:39:59;13.20;99.90
19164;DHT22;9714;51.208;4.242;2023-02-17T09:42:28;13.10;99.90
19164;DHT22;9714;51.208;4.242;2023-02-17T09:45:00;13.20;99.90
19164;DHT22;9714;51.208;4.242;2023-02-17T09:47:32;13.30;99.90
19164;DHT22;9714;51.208;4.242;2023-02-17T09:50:03;13.10;99.90
19164;DHT22;9714;51.208;4.242;2023-02-17T09:52:35;13.20;99.90
19164;DHT22;9714;51.208;4.242;2023-02-17T09:55:06;13.30;99.90
19164;DHT22;9714;51.208;4.242;2023-02-17T09:57:42;13.40;99.90
19164;DHT22;9714;51.208;4.242;2023-02-17T10:00:20;13.40;99.90
19164;DHT22;9714;51.208;4.242;2023-02-17T10:02:54;13.40;99.90
19164;DHT22;9714;51.208;4.242;2023-02-17T10:05:28;13.50;99.90
19164;DHT22;9714;51.208;4.242;2023-02-17T10:08:04;13.60;99.90
19164;DHT22;9714;51.208;4.242;2023-02-17T10:10:58;13.90;99.90
19164;DHT22;9714;51.208;4.242;2023-02-17T10:13:30;13.70;99.90
19164;DHT22;9714;51.208;4.242;2023-02-17T10:16:10;13.90;99.90
19164;DHT22;9714;51.208;4.242;2023-02-17T10:18:46;13.90;99.90
19164;DHT22;9714;51.208;4.242;2023-02-17T10:21:19;13.90;99.90
19164;DHT22;9714;51.208;4.242;2023-02-17T10:23:48;13.80;99.90
19164;DHT22;9714;51.208;4.242;2023-02-17T10:26:40;13.80;99.90
19164;DHT22;9714;51.208;4.242;2023-02-17T10:29:27;13.80;99.90
19164;DHT22;9714;51.208;4.242;2023-02-17T10:32:14;13.60;99.90
19164;DHT22;9714;51.208;4.242;2023-02-17T10:35:11;13.80;99.90
19164;DHT22;9714;51.208;4.242;2023-02-17T10:37:46;13.80;99.90
19164;DHT22;9714;51.208;4.242;2023-02-17T10:40:19;13.80;99.90
19164;DHT22;9714;51.208;4.242;2023-02-17T10:42:49;13.80;99.90
19164;DHT22;9714;51.208;4.242;2023-02-17T10:45:25;13.70;99.90
19164;DHT22;9714;51.208;4.242;2023-02-17T10:48:00;13.80;99.90
19164;DHT22;9714;51.208;4.242;2023-02-17T10:50:29;13.90;99.90
19164;DHT22;9714;51.208;4.242;2023-02-17T10:52:58;14.10;99.90
19164;DHT22;9714;51.208;4.242;2023-02-17T10:55:33;14.30;99.90
19164;DHT22;9714;51.208;4.242;2023-02-17T10:58:10;14.20;99.90
19164;DHT22;9714;51.208;4.242;2023-02-17T11:00:42;14.30;99.90
19164;DHT22;9714;51.208;4.242;2023-02-17T11:03:26;14.10;99.90
19164;DHT22;9714;51.208;4.242;2023-02-17T11:05:55;14.20;99.90
19164;DHT22;9714;51.208;4.242;2023-02-17T11:08:31;14.00;99.90
19164;DHT22;9714;51.208;4.242;2023-02-17T11:11:04;13.90;99.90
19164;DHT22;9714;51.208;4.242;2023-02-17T11:13:37;13.90;99.90
19164;DHT22;9714;51.208;4.242;2023-02-17T11:16:21;13.90;99.90
19164;DHT22;9714;51.208;4.242;2023-02-17T11:18:50;14.00;99.90
19164;DHT22;9714;51.208;4.242;2023-02-17T11:21:17;14.00;99.90
19164;DHT22;9714;51.208;4.242;2023-02-17T11:23:51;13.80;99.90
19164;DHT22;9714;51.208;4.242;2023-02-17T11:26:23;13.70;99.90
19164;DHT22;9714;51.208;4.242;2023-02-17T11:28:51;13.80;99.90
19164;DHT22;9714;51.208;4.242;2023-02-17T11:31:30;14.00;99.90
19164;DHT22;9714;51.208;4.242;2023-02-17T11:34:10;14.00;99.90
19164;DHT22;9714;51.208;4.242;2023-02-17T11:36:38;13.80;99.90
19164;DHT22;9714;51.208;4.242;2023-02-17T11:39:16;13.80;99.90
19164;DHT22;9714;51.208;4.242;2023-02-17T11:41:48;13.90;99.90
19164;DHT22;9714;51.208;4.242;2023-02-17T11:44:33;13.80;99.90
19164;DHT22;9714;51.208;4.242;2023-02-17T11:47:06;13.70;99.90
19164;DHT22;9714;51.208;4.242;2023-02-17T11:50:15;13.60;99.90
19164;DHT22;9714;51.208;4.242;2023-02-17T11:52:53;13.50;99.90
19164;DHT22;9714;51.208;4.242;2023-02-17T11:55:32;13.60;99.90
19164;DHT22;9714;51.208;4.242;2023-02-17T11:58:11;13.60;99.90
19164;DHT22;9714;51.208;4.242;2023-02-17T12:00:54;13.50;99.90
19164;DHT22;9714;51.208;4.242;2023-02-17T12:06:47;13.50;99.90
19164;DHT22;9714;51.208;4.242;2023-02-17T12:09:27;13.60;99.90
19164;DHT22;9714;51.208;4.242;2023-02-17T12:12:03;13.40;99.90
19164;DHT22;9714;51.208;4.242;2023-02-17T12:14:46;13.40;99.90
19164;DHT22;9714;51.208;4.242;2023-02-17T12:17:21;13.40;99.90
19164;DHT22;9714;51.208;4.242;2023-02-17T12:20:00;13.40;99.90
19164;DHT22;9714;51.208;4.242;2023-02-17T12:22:45;13.50;99.90
19164;DHT22;9714;51.208;4.242;2023-02-17T12:25:25;13.60;99.90
19164;DHT22;9714;51.208;4.242;2023-02-17T12:28:11;13.70;99.90
19164;DHT22;9714;51.208;4.242;2023-02-17T12:30:53;13.60;99.90
19164;DHT22;9714;51.208;4.242;2023-02-17T12:33:42;13.60;99.90
19164;DHT22;9714;51.208;4.242;2023-02-17T12:36:14;13.70;99.90
19164;DHT22;9714;51.208;4.242;2023-02-17T12:38:48;13.70;99.90
19164;DHT22;9714;51.208;4.242;2023-02-17T12:41:21;13.70;99.90
19164;DHT22;9714;51.208;4.242;2023-02-17T12:43:50;13.70;99.90
19164;DHT22;9714;51.208;4.242;2023-02-17T12:46:24;13.80;99.90
19164;DHT22;9714;51.208;4.242;2023-02-17T12:48:55;13.80;99.90
19164;DHT22;9714;51.208;4.242;2023-02-17T12:51:27;13.90;99.90
19164;DHT22;9714;51.208;4.242;2023-02-17T12:54:03;13.90;99.90
19164;DHT22;9714;51.208;4.242;2023-02-17T12:57:02;13.80;99.90
19164;DHT22;9714;51.208;4.242;2023-02-17T12:59:33;13.80;99.90
19164;DHT22;9714;51.208;4.242;2023-02-17T13:02:03;13.90;99.90
19164;DHT22;9714;51.208;4.242;2023-02-17T13:04:33;14.20;99.90
19164;DHT22;9714;51.208;4.242;2023-02-17T13:07:12;14.20;99.90
19164;DHT22;9714;51.208;4.242;2023-02-17T13:09:44;14.50;99.90
19164;DHT22;9714;51.208;4.242;2023-02-17T13:12:29;14.40;99.90
19164;DHT22;9714;51.208;4.242;2023-02-17T13:18:27;14.10;99.90
19164;DHT22;9714;51.208;4.242;2023-02-17T13:21:15;13.90;99.90
19164;DHT22;9714;51.208;4.242;2023-02-17T13:23:44;13.90;99.90
19164;DHT22;9714;51.208;4.242;2023-02-17T13:26:23;14.20;99.90
19164;DHT22;9714;51.208;4.242;2023-02-17T13:28:52;14.20;99.90
19164;DHT22;9714;51.208;4.242;2023-02-17T13:31:23;14.00;99.90
19164;DHT22;9714;51.208;4.242;2023-02-17T13:33:52;14.00;99.90
19164;DHT22;9714;51.208;4.242;2023-02-17T13:36:33;13.90;99.90
19164;DHT22;9714;51.208;4.242;2023-02-17T13:39:04;13.90;99.90
19164;DHT22;9714;51.208;4.242;2023-02-17T13:41:45;14.00;99.90
19164;DHT22;9714;51.208;4.242;2023-02-17T13:44:25;13.90;99.90
19164;DHT22;9714;51.208;4.242;2023-02-17T13:46:56;13.80;99.90
19164;DHT22;9714;51.208;4.242;2023-02-17T13:49:29;13.90;99.90
19164;DHT22;9714;51.208;4.242;2023-02-17T13:52:07;14.00;99.90
19164;DHT22;9714;51.208;4.242;2023-02-17T13:54:35;14.10;99.90
19164;DHT22;9714;51.208;4.242;2023-02-17T13:57:04;13.90;99.90
19164;DHT22;9714;51.208;4.242;2023-02-17T13:59:32;13.90;99.90
19164;DHT22;9714;51.208;4.242;2023-02-17T14:01:59;14.10;99.90
19164;DHT22;9714;51.208;4.242;2023-02-17T14:04:29;14.20;99.90
19164;DHT22;9714;51.208;4.242;2023-02-17T14:06:57;14.10;99.90
19164;DHT22;9714;51.208;4.242;2023-02-17T14:09:29;14.00;99.90
19164;DHT22;9714;51.208;4.242;2023-02-17T14:11:58;13.90;99.90
19164;DHT22;9714;51.208;4.242;2023-02-17T14:14:31;14.00;99.90
19164;DHT22;9714;51.208;4.242;2023-02-17T14:17:03;14.00;99.90
19164;DHT22;9714;51.208;4.242;2023-02-17T14:19:41;14.00;99.90
19164;DHT22;9714;51.208;4.242;2023-02-17T14:22:23;13.90;99.90
19164;DHT22;9714;51.208;4.242;2023-02-17T14:25:02;13.80;99.90
19164;DHT22;9714;51.208;4.242;2023-02-17T14:27:40;13.70;99.90
19164;DHT22;9714;51.208;4.242;2023-02-17T14:30:14;13.70;99.90
19164;DHT22;9714;51.208;4.242;2023-02-17T14:32:41;13.70;99.90
19164;DHT22;9714;51.208;4.242;2023-02-17T14:35:20;13.70;99.90
19164;DHT22;9714;51.208;4.242;2023-02-17T14:37:48;13.60;99.90
19164;DHT22;9714;51.208;4.242;2023-02-17T14:40:18;13.70;99.90
19164;DHT22;9714;51.208;4.242;2023-02-17T14:42:46;13.70;99.90
19164;DHT22;9714;51.208;4.242;2023-02-17T14:45:15;13.60;99.90
19164;DHT22;9714;51.208;4.242;2023-02-17T14:47:43;13.70;99.90
19164;DHT22;9714;51.208;4.242;2023-02-17T14:50:11;13.50;99.90
19164;DHT22;9714;51.208;4.242;2023-02-17T14:52:42;13.50;99.90
19164;DHT22;9714;51.208;4.242;2023-02-17T14:55:14;13.50;99.90
19164;DHT22;9714;51.208;4.242;2023-02-17T14:57:44;13.50;99.90
19164;DHT22;9714;51.208;4.242;2023-02-17T15:02:43;13.70;99.90
19164;DHT22;9714;51.208;4.242;2023-02-17T15:05:11;13.50;99.90
19164;DHT22;9714;51.208;4.242;2023-02-17T15:07:39;13.60;99.90
19164;DHT22;9714;51.208;4.242;2023-02-17T15:10:37;13.70;99.90
19164;DHT22;9714;51.208;4.242;2023-02-17T15:13:05;13.70;99.90
19164;DHT22;9714;51.208;4.242;2023-02-17T15:15:35;13.70;99.90
19164;DHT22;9714;51.208;4.242;2023-02-17T15:18:05;13.50;99.90
19164;DHT22;9714;51.208;4.242;2023-02-17T15:20:34;13.50;99.90
19164;DHT22;9714;51.208;4.242;2023-02-17T15:23:11;13.50;99.90
19164;DHT22;9714;51.208;4.242;2023-02-17T15:25:40;13.50;99.90
19164;DHT22;9714;51.208;4.242;2023-02-17T15:28:11;13.40;99.90
19164;DHT22;9714;51.208;4.242;2023-02-17T15:30:41;13.40;99.90
19164;DHT22;9714;51.208;4.242;2023-02-17T15:33:12;13.50;99.90
19164;DHT22;9714;51.208;4.242;2023-02-17T15:35:40;13.40;99.90
19164;DHT22;9714;51.208;4.242;2023-02-17T15:38:10;13.50;99.90
19164;DHT22;9714;51.208;4.242;2023-02-17T15:40:38;13.30;99.90
19164;DHT22;9714;51.208;4.242;2023-02-17T15:43:11;13.30;99.90
19164;DHT22;9714;51.208;4.242;2023-02-17T15:45:40;13.30;99.90
19164;DHT22;9714;51.208;4.242;2023-02-17T15:48:13;13.30;99.90
19164;DHT22;9714;51.208;4.242;2023-02-17T15:50:51;13.40;99.90
19164;DHT22;9714;51.208;4.242;2023-02-17T15:53:20;13.50;99.90
19164;DHT22;9714;51.208;4.242;2023-02-17T15:55:50;13.40;99.90
19164;DHT22;9714;51.208;4.242;2023-02-17T15:58:20;13.40;99.90
19164;DHT22;9714;51.208;4.242;2023-02-17T16:00:49;13.20;99.90
19164;DHT22;9714;51.208;4.242;2023-02-17T16:03:18;13.30;99.90
19164;DHT22;9714;51.208;4.242;2023-02-17T16:05:46;13.30;99.90
19164;DHT22;9714;51.208;4.242;2023-02-17T16:08:14;13.30;99.90
19164;DHT22;9714;51.208;4.242;2023-02-17T16:10:41;13.20;99.90
19164;DHT22;9714;51.208;4.242;2023-02-17T16:13:12;13.20;99.90
19164;DHT22;9714;51.208;4.242;2023-02-17T16:15:41;13.20;99.90
19164;DHT22;9714;51.208;4.242;2023-02-17T16:18:15;13.10;99.90
19164;DHT22;9714;51.208;4.242;2023-02-17T16:20:49;13.10;99.90
19164;DHT22;9714;51.208;4.242;2023-02-17T16:23:16;13.20;99.90
19164;DHT22;9714;51.208;4.242;2023-02-17T16:25:45;13.20;99.90
19164;DHT22;9714;51.208;4.242;2023-02-17T16:28:15;13.00;99.90
19164;DHT22;9714;51.208;4.242;2023-02-17T16:30:45;13.00;99.90
19164;DHT22;9714;51.208;4.242;2023-02-17T16:33:15;13.00;99.90
19164;DHT22;9714;51.208;4.242;2023-02-17T16:35:42;13.10;99.90
19164;DHT22;9714;51.208;4.242;2023-02-17T16:38:14;13.00;99.90
19164;DHT22;9714;51.208;4.242;2023-02-17T16:40:46;13.10;99.90
19164;DHT22;9714;51.208;4.242;2023-02-17T16:43:14;13.00;99.90
19164;DHT22;9714;51.208;4.242;2023-02-17T16:45:51;13.00;99.90
19164;DHT22;9714;51.208;4.242;2023-02-17T16:48:20;12.90;99.90
19164;DHT22;9714;51.208;4.242;2023-02-17T16:50:48;12.70;99.90
19164;DHT22;9714;51.208;4.242;2023-02-17T16:53:17;12.80;99.90
19164;DHT22;9714;51.208;4.242;2023-02-17T16:55:44;12.90;99.90
19164;DHT22;9714;51.208;4.242;2023-02-17T16:58:14;12.90;99.90
19164;DHT22;9714;51.208;4.242;2023-02-17T17:00:43;12.70;99.90
19164;DHT22;9714;51.208;4.242;2023-02-17T17:03:11;12.70;99.90
19164;DHT22;9714;51.208;4.242;2023-02-17T17:05:38;12.70;99.90
19164;DHT22;9714;51.208;4.242;2023-02-17T17:08:10;12.70;99.90
19164;DHT22;9714;51.208;4.242;2023-02-17T17:10:40;12.80;99.90
19164;DHT22;9714;51.208;4.242;2023-02-17T17:13:08;12.80;99.90
19164;DHT22;9714;51.208;4.242;2023-02-17T17:15:37;12.70;99.90
19164;DHT22;9714;51.208;4.242;2023-02-17T17:18:06;12.90;99.90
19164;DHT22;9714;51.208;4.242;2023-02-17T17:20:36;12.70;99.90
19164;DHT22;9714;51.208;4.242;2023-02-17T17:23:11;12.70;99.90
19164;DHT22;9714;51.208;4.242;2023-02-17T17:25:46;12.70;99.90
19164;DHT22;9714;51.208;4.242;2023-02-17T17:28:17;12.70;99.90
19164;DHT22;9714;51.208;4.242;2023-02-17T17:30:46;12.70;99.90
19164;DHT22;9714;51.208;4.242;2023-02-17T17:33:13;12.60;99.90
19164;DHT22;9714;51.208;4.242;2023-02-17T17:35:41;12.60;99.90
19164;DHT22;9714;51.208;4.242;2023-02-17T17:38:12;12.60;99.90
19164;DHT22;9714;51.208;4.242;2023-02-17T17:40:40;12.40;99.90
19164;DHT22;9714;51.208;4.242;2023-02-17T17:43:16;12.30;99.90
19164;DHT22;9714;51.208;4.242;2023-02-17T17:45:45;12.40;99.90
19164;DHT22;9714;51.208;4.242;2023-02-17T17:48:14;12.40;99.90
19164;DHT22;9714;51.208;4.242;2023-02-17T17:50:42;12.40;99.90
19164;DHT22;9714;51.208;4.242;2023-02-17T17:53:10;12.40;99.90